ADDS METAR Data INFO
IDs: Format: Raw Decoded Include TAF

Data at: 0216 UTC 14 Dec 2017

KRME 140153Z 26005KT 4SM -SN OVC017 M08/M12 A2961 RMK AO2 SLP033 P0000 T10831117
KRME 140053Z 27007KT 7SM -SN OVC021 M08/M12 A2960 RMK AO2 SLP030 P0000 T10831122
KRME 132353Z 26008KT 7SM -SN BKN019 BKN025 OVC036 M08/M12 A2961 RMK AO2 SLP033 P0000 60000 T10831117 11078 21089 51008
KRME 132311Z 25011G19KT 3SM -SN BR BKN019 OVC039 M08/M11 A2960 RMK AO2 P0000 T10831106
KRME 132303Z 25013KT 2 1/2SM -SN BR BKN019 OVC039 M08/M11 A2960 RMK AO2 P0000 T10831106
KRME 132253Z 26014G20KT 1 1/2SM -SN BR OVC017 M08/M11 A2960 RMK AO2 SLP030 P0000 T10831106
KRME 132251Z 26013G20KT 1 1/2SM -SN BR OVC017 M08/M11 A2960 RMK AO2 P0000
KRME 132210Z 26011KT 2SM -SN BR BKN016 BKN029 OVC037 M08/M10 A2959 RMK AO2 P0000 T10831100
KRME 132203Z 25012KT 1 3/4SM -SN BR BKN016 BKN029 OVC037 M08/M10 A2959 RMK AO2 P0000 T10831100
KRME 132153Z 26012KT 1 1/2SM -SN BR OVC014 M08/M10 A2958 RMK AO2 SLP025 P0000 T10831100
KRME 132146Z 26013G19KT 1 1/4SM -SN BR OVC014 M08/M10 A2958 RMK AO2 P0000 T10831100
KRME 132134Z 26012G21KT 3/4SM -SN BR BKN012 OVC020 M08/M10 A2958 RMK AO2 P0000 T10831100 RVRNO
KRME 132053Z 28011KT 1 1/4SM -SN BR FEW016 OVC021 M08/M10 A2958 RMK AO2 SLP022 P0000 60000 T10781100 51007
KRME 132000Z 29015KT 1 1/4SM -SN BKN019 BKN026 OVC034 M08/M11 A2957 RMK AO2 P0000 T10781106
KRME 131953Z 28014KT 2SM -SN BKN019 BKN026 OVC034 M08/M11 A2957 RMK AO2 SLP020 P0000 T10781106
KRME 131950Z 29014KT 2SM -SN SCT019 BKN026 OVC034 M08/M11 A2957 RMK AO2 P0000
KRME 131853Z 29014KT 1 1/4SM -SN BKN021 OVC029 M08/M11 A2955 RMK AO2 SLP015 P0000 T10781106
KRME 131839Z 28019KT 1 3/4SM -SN BKN023 BKN029 OVC037 M08/M11 A2955 RMK AO2 P0000 T10781111
KRME 131828Z 29013KT 3SM -SN OVC023 M08/M11 A2955 RMK AO2 P0000 T10831111
KRME 131753Z 29018G28KT 1 1/2SM -SN OVC023 M09/M12 A2955 RMK AO2 PK WND 30029/1714 SLP012 P0000 60000 T10891122 11089 21117 53006
KRME 131703Z 29018G27KT 1 3/4SM -SN BKN026 BKN031 OVC039 M09/M12 A2954 RMK AO2 PK WND 28027/1655 P0000 T10891122
KRME 131653Z 29023G32KT 3/4SM -SN BKN026 BKN031 OVC070 M09/M13 A2954 RMK AO2 PK WND 30032/1652 UPB49E52SNE49B52 SLP009 P0000 T10941128 RVRNO
KRME 131646Z 30021G30KT 3/4SM -SN BKN024 BKN031 OVC070 M09/M13 A2954 RMK AO2 PK WND 30030/1639 P0000 T10891128 RVRNO
KRME 131632Z 28024G29KT 1 1/4SM -SN SCT021 BKN035 OVC070 M09/M13 A2953 RMK AO2 PK WND 29029/1631 P0000 T10941128
KRME 131626Z 29021G27KT 2 1/2SM -SN BKN021 BKN032 OVC055 M09/M13 A2954 RMK AO2 PK WND 28027/1625 P0000 T10941128
KRME 131605Z 28017G20KT 1 1/2SM -SN BKN016 OVC032 M09/M12 A2953 RMK AO2 VIS 1V3 P0000 T10941122
KRME 131553Z 30008KT 1/2SM SN FZFG BKN012 OVC021 M11/M12 A2953 RMK AO2 SLP007 P0000 T11061122 RVRNO
KRME 131546Z 31008KT 3/4SM -SN BR BKN012 OVC023 M11/M13 A2953 RMK AO2 P0000 T11061128 RVRNO
KRME 131508Z 32010KT 1 1/2SM -SN BKN017 OVC027 M11/M14 A2953 RMK AO2 P0000 T11111144
KRME 131453Z 32012KT 2 1/2SM -SN BKN020 OVC024 M11/M14 A2953 RMK AO2 SNB1358 SLP005 P0000 60000 T11111139 51019
KRME 131416Z 31009KT 5SM -SN SCT023 BKN028 OVC065 M12/M14 A2951 RMK AO2 SNB1358 P0000 T11171144
KRME 131353Z 31014KT 9SM FEW035 OVC065 M12/M14 A2951 RMK AO2 UPB12E34SNE12B14E16 SLP999 P0000 T11171144
KRME 131253Z 30014KT 3SM -SN SCT028 OVC039 M11/M13 A2949 RMK AO2 SLP994 P0000 T11061133
KRME 131233Z 31016KT 2SM -SN BKN017 OVC044 M11/M13 A2948 RMK AO2 P0000 T11061133
KRME 131222Z 31018KT 1 1/2SM -SN BR OVC015 M11/M13 A2948 RMK AO2 VIS 1V2 1/2 P0000 T11061128
KRME 131157Z 31014KT 2SM -SN BR BKN016 OVC021 M10/M12 A2947 RMK AO2 P0000 T11001122
KRME 131153Z 31014KT 1 1/2SM -SN BR BKN014 OVC021 M10/M12 A2947 RMK AO2 SLP985 P0000 60000 70018 T11001122 11089 21106 53002
KRME 131141Z 30016KT 1 3/4SM -SN BKN014 OVC021 M09/M12 A2947 RMK AO2 P0000 T10941122
KRME 131116Z AUTO 28011KT 1 1/2SM -SN BR OVC016 M09/M11 A2947 RMK AO2 P0000 T10941111
KRME 131053Z AUTO 27006KT 1SM -SN BR VV013 M09/M11 A2947 RMK AO2 SLP984 P0000 T10941111 RVRNO
KRME 131045Z AUTO 27008KT 1SM -SN BR VV013 M09/M11 A2947 RMK AO2 P0000 T10941111 RVRNO
KRME 131034Z AUTO 26010KT 3/4SM -SN BR VV013 M09/M11 A2946 RMK AO2 P0000 T10941111 RVRNO
KRME 130953Z AUTO 27007KT 1SM -SN BR VV012 M09/M11 A2946 RMK AO2 SLP982 P0000 T10941111 RVRNO
KRME 130905Z AUTO 27012KT 1 1/4SM -SN BR OVC010 M10/M12 A2946 RMK AO2 P0000 T11001117
KRME 130853Z AUTO 26013G19KT 3/4SM -SN BR VV010 M10/M12 A2946 RMK AO2 SLP983 P0000 60000 T11001117 56008 RVRNO
KRME 130845Z AUTO 26012G20KT 3/4SM -SN BKN010 OVC020 M09/M12 A2947 RMK AO2 P0000 T10941122 RVRNO
KRME 130838Z AUTO 27013KT 2 1/2SM -SN BKN014 OVC020 M09/M12 A2947 RMK AO2 P0000 T10941122
KRME 130753Z AUTO 26006KT 4SM -SN OVC022 M09/M13 A2948 RMK AO2 SNB24 SLP986 P0000 T10941128
KRME 130700Z AUTO 25005KT 10SM BKN024 OVC033 M11/M14 A2947 RMK AO2 T11061144
KRME 130653Z AUTO 25007KT 10SM SCT026 BKN032 OVC050 M11/M14 A2947 RMK AO2 SLP984 T11061144
KRME 130553Z AUTO 25006KT 10SM FEW025 M10/M15 A2949 RMK AO2 SLP990 T11001150 11039 21106 55022
KRME 130453Z AUTO 27006KT 10SM CLR M10/M15 A2949 RMK AO2 SLP990 T11001150 400061100
KRME 130353Z AUTO 26009KT 10SM CLR M09/M15 A2952 RMK AO2 SLP002 T10891150
KRME 130253Z AUTO 25009KT 10SM FEW065 M08/M14 A2955 RMK AO2 SLP013 T10781139 50004
KRME 130153Z 26010G19KT 10SM OVC055 M06/M13 A2957 RMK AO2 SLP016 T10611128
KRME 130053Z 28014KT 10SM BKN046 BKN055 OVC075 M05/M11 A2956 RMK AO2 SLP014 T10501106
KRME 122353Z 29017G27KT 9SM OVC070 M04/M09 A2954 RMK AO2 PK WND 29027/2344 UPB08E26 SLP008 P0000 60001 T10391089 10006 21039 51012
KRME 122253Z 28016G25KT 10SM OVC070 M03/M08 A2954 RMK AO2 PK WND 28026/2158 UPE07 SLP005 P0000 T10331078
KRME 122153Z 28016G22KT 10SM UP FEW042 BKN049 OVC100 M02/M07 A2952 RMK AO2 UPB35SNE33 SLP000 P0000 T10221067
KRME 122053Z 28018G24KT 4SM -SN FEW023 BKN030 OVC049 M02/M04 A2951 RMK AO2 SLP995 P0000 60001 T10171044 50018
KRME 122050Z 27018G24KT 4SM -SN FEW023 OVC033 M02/M04 A2951 RMK AO2 P0000
KRME 122042Z 28014G24KT 3SM -SN SCT022 BKN026 OVC048 M02/M04 A2950 RMK AO2 P0000 T10171044
KRME 122017Z 27016G24KT 1SM -SN BR SCT010 BKN018 OVC025 M02/M03 A2949 RMK AO2 P0000 T10171028 RVRNO
KRME 121959Z 27016G26KT 3/4SM -SN BR BKN010 OVC017 00/M01 A2947 RMK AO2 CIG 007V013 P0000 T00001011 RVRNO
KRME 121953Z 27017G26KT 1SM -SN BR BKN009 OVC017 00/M01 A2947 RMK AO2 PK WND 28026/1952 CIG 007V013 SLP984 P0001 T00001011 RVRNO
KRME 121943Z 27013G19KT 1 1/2SM -SN BR SCT009 OVC015 00/M01 A2947 RMK AO2 P0001 T00001011
KRME 121853Z 28011KT 1 1/2SM -SN BR OVC009 01/M01 A2945 RMK AO2 SLP977 P0000 T00061006
KRME 121834Z 27009KT 1 3/4SM -SN BR BKN007 BKN019 OVC029 01/M01 A2945 RMK AO2 P0000 T00061006
KRME 121821Z 27009KT 1 1/2SM -SN BR SCT007 BKN013 OVC025 01/00 A2945 RMK AO2 P0000 T00060000
KRME 121756Z 26007KT 1SM -SN BR FEW007 BKN018 OVC024 00/M01 A2944 RMK AO2 P0000 T00001006 RVRNO
KRME 121753Z 28003KT 1SM -SN BR BKN009 BKN018 OVC024 00/M01 A2945 RMK AO2 CIG 006V015 SLP975 P0002 60017 T00001006 10006 21022 56022 RVRNO
KRME 121750Z 27003KT 1SM -SN BR SCT009 BKN014 OVC029 00/00 A2945 RMK AO2 P0002 RVRNO
KRME 121742Z 00000KT 1SM -SN BR FEW013 BKN018 OVC030 01/00 A2945 RMK AO2 P0001 T00060000 RVRNO
KRME 121716Z 11004KT 1 1/2SM -SN BR FEW022 OVC035 00/M01 A2945 RMK AO2 P0000 T00001006
KRME 121700Z 12006KT 2 1/2SM -SN BR OVC032 00/M01 A2946 RMK AO2 P0000 T00001006
KRME 121653Z 12006KT 3SM -SN BR OVC032 01/M01 A2946 RMK AO2 SNE1557B35 SLP979 P0000 T00061006
KRME 121641Z 11004KT 3SM -SN BR OVC030 00/M01 A2946 RMK AO2 SNE1557B35 P0000 T00001006
KRME 121600Z 12004KT 4SM BR BKN022 OVC029 00/M01 A2948 RMK AO2 SNE1557 P0000 T00001006
KRME 121553Z 11005KT 2 1/2SM -SN BR BKN022 OVC029 00/M01 A2948 RMK AO2 SLP987 P0002 T00001006
KRME 121536Z 12005KT 2SM -SN BR FEW007 SCT014 OVC020 M01/M01 A2949 RMK AO2 P0002 T10061006
KRME 121514Z 12005KT 1 1/4SM -SN BR FEW007 BKN013 OVC018 M01/M01 A2950 RMK AO2 P0001 T10061011
KRME 121453Z 11005KT 1/2SM SN FZFG FEW007 OVC013 M01/M01 A2951 RMK AO2 SLP997 P0006 60013 T10061011 56013 RVRNO
KRME 121425Z 11006KT 1/2SM SN FZFG VV010 M01/M01 A2952 RMK AO2 P0003 T10111011 RVRNO